Charterhall, United Kingdom
Current Conditions -  °F | °C
As of 3:50 AM on Friday 19 Dec 2014 (Local Time) from EGQM Reporting Station
Clear Clear  
Wind Chill: 31°   Ceiling: Unl
Heat Index: 41°   Visibility: 6mi
Dew Point: 36°   Wind: 22mph
Humidity: 81%   Direction: 250°WSW
Pressure: 29.5"   Gusts: NA
Location:  55.7°N, 2.38°W
Report Text: EGQM 190350Z AUTO 25019KT 9999 NCD 05/02 Q0999
Loading
Personal Weather Stations






























Interactive Weather Map New forecast layout! Learn more

10-Day Weather Forecast

Advertisements
Track Severe Weather on mobile